Time;durP1;ratioP1;P1;durP2;ratioP2;P2;SDS_P1;SDS_P2;PMS_P1;PMS_P2;Temp;Humidity;BMP_temperature;BMP_pressure;BME280_temperature;BME280_humidity;BME280_pressure;Samples;Min_cycle;Max_cycle;Signal;HPM_P1;HPM_P2
2022/04/16 00:01:33;;;;;;;9.73;6.10;;;;;;;11.27;100.00;99548.66;6255741;23;20346;-62
2022/04/16 00:04:18;;;;;;;10.90;6.38;;;;;;;11.26;100.00;99550.41;6255812;23;20031;-62
2022/04/16 00:07:03;;;;;;;;;;;;;;;11.30;100.00;99551.19;6254351;23;20101;-62
2022/04/16 00:09:47;;;;;;;10.68;6.20;;;;;;;11.01;100.00;99527.19;6244541;23;19938;-63
2022/04/16 00:12:31;;;;;;;9.60;6.53;;;;;;;10.84;100.00;99519.66;6254007;23;20031;-62
2022/04/16 00:15:16;;;;;;;9.23;6.07;;;;;;;11.07;100.00;99542.97;6231844;23;20027;-62
2022/04/16 00:18:00;;;;;;;13.70;6.80;;;;;;;11.10;100.00;99542.88;6244045;23;20381;-61
2022/04/16 00:20:49;;;;;;;10.65;7.00;;;;;;;11.15;100.00;99541.84;6255367;23;20023;-62
2022/04/16 00:23:33;;;;;;;8.57;6.00;;;;;;;11.19;100.00;99542.66;6256869;23;20074;-62
2022/04/16 00:26:21;;;;;;;9.30;6.45;;;;;;;11.21;100.00;99541.72;6232973;23;20427;-63
2022/04/16 00:29:05;;;;;;;9.02;7.05;;;;;;;11.20;100.00;99544.41;6233264;23;20031;-61
2022/04/16 00:31:50;;;;;;;8.63;6.00;;;;;;;11.05;100.00;99508.53;6256873;23;20045;-61
2022/04/16 00:34:35;;;;;;;10.40;6.63;;;;;;;11.23;100.00;99537.22;6223372;23;20073;-62
2022/04/16 00:37:19;;;;;;;11.57;7.25;;;;;;;11.22;100.00;99526.63;6256364;23;20026;-61
2022/04/16 00:40:04;;;;;;;8.68;6.57;;;;;;;11.20;100.00;99539.09;6223646;23;20537;-62
2022/04/16 00:42:50;;;;;;;8.60;6.45;;;;;;;11.17;100.00;99533.84;6233396;23;20038;-67
2022/04/16 00:45:35;;;;;;;11.57;6.72;;;;;;;11.07;100.00;99521.75;6181827;23;20031;-62
2022/04/16 00:48:23;;;;;;;10.45;6.68;;;;;;;11.19;100.00;99538.22;6256027;23;20107;-61
2022/04/16 00:51:08;;;;;;;9.70;6.53;;;;;;;10.95;100.00;99493.75;6247353;23;20028;-60
2022/04/16 00:53:53;;;;;;;8.98;6.78;;;;;;;11.11;100.00;99526.91;6197667;23;20027;-61
2022/04/16 00:56:39;;;;;;;14.35;6.68;;;;;;;11.14;100.00;99528.63;6251977;23;20146;-62
2022/04/16 00:59:23;;;;;;;9.50;6.35;;;;;;;11.14;100.00;99523.31;6250479;23;20027;-63
2022/04/16 01:02:09;;;;;;;9.98;7.07;;;;;;;10.97;100.00;99504.31;6251861;23;20027;-62
2022/04/16 01:04:54;;;;;;;9.65;6.35;;;;;;;11.13;100.00;99529.53;6249284;23;20113;-61
2022/04/16 01:07:53;;;;;;;8.85;6.63;;;;;;;11.24;100.00;99524.81;6197316;23;20027;-62
2022/04/16 01:10:39;;;;;;;11.05;6.88;;;;;;;11.10;100.00;99519.88;6218629;23;20098;-62
2022/04/16 01:13:24;;;;;;;9.13;6.82;;;;;;;11.20;100.00;99528.47;6239168;23;20103;-62
2022/04/16 01:16:08;;;;;;;7.75;6.60;;;;;;;11.17;100.00;99531.19;6197318;23;20031;-61
2022/04/16 01:18:53;;;;;;;8.48;7.30;;;;;;;11.01;100.00;99492.72;6249204;23;20039;-61
2022/04/16 01:21:37;;;;;;;8.55;6.68;;;;;;;11.22;100.00;99523.97;6218028;23;20027;-62
2022/04/16 01:24:21;;;;;;;9.65;7.45;;;;;;;11.05;100.00;99505.88;6215895;23;20154;-63
2022/04/16 01:27:08;;;;;;;11.18;7.70;;;;;;;11.16;100.00;99527.66;6248747;23;20031;-62
2022/04/16 01:29:53;;;;;;;11.43;7.60;;;;;;;10.96;100.00;99503.44;6215853;23;20569;-62
2022/04/16 01:32:38;;;;;;;10.50;7.70;;;;;;;11.09;100.00;99533.19;6223905;23;20073;-68
2022/04/16 01:35:23;;;;;;;9.45;7.38;;;;;;;10.99;100.00;99523.75;6239368;23;20027;-61
2022/04/16 01:38:09;;;;;;;11.40;7.22;;;;;;;11.03;100.00;99528.06;6237181;23;20043;-64
2022/04/16 01:40:57;;;;;;;12.80;8.50;;;;;;;10.88;100.00;99512.50;6251590;23;20031;-62
2022/04/16 01:43:41;;;;;;;11.73;8.07;;;;;;;10.92;100.00;99527.44;6244990;23;20442;-63
2022/04/16 01:46:27;;;;;;;11.15;8.38;;;;;;;10.86;100.00;99530.22;6255944;23;20103;-61
2022/04/16 01:49:12;;;;;;;11.63;9.32;;;;;;;10.75;100.00;99529.63;6232944;23;20035;-62
2022/04/16 01:51:57;;;;;;;14.27;10.00;;;;;;;10.72;100.00;99532.38;6223798;23;20070;-61
2022/04/16 01:54:42;;;;;;;13.02;9.50;;;;;;;10.64;100.00;99529.03;6212454;23;20081;-63
2022/04/16 01:57:26;;;;;;;11.02;9.15;;;;;;;10.45;100.00;99510.06;6253029;23;20031;-63
2022/04/16 02:00:14;;;;;;;9.63;7.78;;;;;;;10.60;100.00;99530.03;6247395;23;20043;-60
2022/04/16 02:03:02;;;;;;;8.63;6.47;;;;;;;10.62;100.00;99531.72;6218549;23;20094;-61
2022/04/16 02:05:48;;;;;;;8.73;6.63;;;;;;;10.45;100.00;99531.25;6238913;23;20081;-72
2022/04/16 02:08:32;;;;;;;10.27;6.88;;;;;;;10.44;100.00;99526.00;6228593;23;20027;-62
2022/04/16 02:11:17;;;;;;;8.98;5.57;;;;;;;10.42;100.00;99535.72;6248481;23;20031;-61
2022/04/16 02:14:02;;;;;;;7.18;5.15;;;;;;;10.22;100.00;99516.78;6251305;23;20528;-62
2022/04/16 02:16:48;;;;;;;8.45;5.70;;;;;;;10.08;100.00;99532.97;6228425;23;20027;-61
2022/04/16 02:19:34;;;;;;;5.10;4.47;;;;;;;10.04;100.00;99528.59;6251432;23;20485;-64
2022/04/16 02:22:18;;;;;;;5.05;3.90;;;;;;;10.01;100.00;99533.13;6197110;23;20078;-61
2022/04/16 02:25:08;;;;;;;5.00;4.07;;;;;;;10.05;100.00;99535.69;6238740;23;20035;-73
2022/04/16 02:27:52;;;;;;;4.28;3.75;;;;;;;9.94;100.00;99536.78;6218162;23;20078;-62
2022/04/16 02:30:37;;;;;;;4.35;3.80;;;;;;;9.96;100.00;99535.00;6226609;23;20031;-61
2022/04/16 02:33:22;;;;;;;4.07;3.67;;;;;;;9.82;100.00;99535.28;6218021;23;20026;-61
2022/04/16 02:36:07;;;;;;;4.15;3.00;;;;;;;9.71;100.00;99515.22;6251152;23;20065;-60
2022/04/16 02:38:54;;;;;;;3.20;2.88;;;;;;;9.79;100.00;99540.63;6227855;23;20030;-65
2022/04/16 02:41:38;;;;;;;2.80;2.42;;;;;;;9.64;100.00;99545.38;6251171;23;20103;-62
2022/04/16 02:47:25;;;;;;;2.22;1.92;;;;;;;9.40;100.00;99534.34;6231747;23;20516;-64
2022/04/16 02:50:11;;;;;;;2.55;1.98;;;;;;;9.47;100.00;99554.47;6250852;23;20031;-61
2022/04/16 02:52:56;;;;;;;2.53;2.10;;;;;;;9.42;100.00;99548.41;6250411;23;20076;-63
2022/04/16 02:55:46;;;;;;;3.03;1.90;;;;;;;9.44;100.00;99554.56;6255451;23;20026;-62
2022/04/16 02:58:30;;;;;;;2.35;1.65;;;;;;;9.38;100.00;99551.16;6222882;23;20250;-61
2022/04/16 03:01:15;;;;;;;2.83;1.60;;;;;;;9.02;100.00;99555.34;6222584;23;20027;-61
2022/04/16 03:03:59;;;;;;;2.10;1.80;;;;;;;8.99;100.00;99557.16;6255378;23;20478;-63
2022/04/16 03:06:44;;;;;;;2.60;1.90;;;;;;;9.04;100.00;99552.66;6255108;23;20047;-61
2022/04/16 03:09:28;;;;;;;2.78;1.73;;;;;;;8.75;100.00;99521.41;6245774;23;20054;-65
2022/04/16 03:12:13;;;;;;;3.13;1.90;;;;;;;8.91;100.00;99552.00;6232808;23;20046;-62
2022/04/16 03:18:01;;;;;;;2.15;1.55;;;;;;;8.83;100.00;99574.19;6257155;23;20030;-62
2022/04/16 03:20:46;;;;;;;3.55;1.60;;;;;;;8.78;100.00;99574.25;6238184;23;20078;-62
2022/04/16 03:23:30;;;;;;;2.80;1.65;;;;;;;8.79;100.00;99568.06;6233350;23;20027;-61
2022/04/16 03:26:15;;;;;;;2.22;1.85;;;;;;;8.66;100.00;99560.34;6254729;23;20485;-61
2022/04/16 03:28:59;;;;;;;2.33;1.70;;;;;;;8.80;100.00;99582.16;6245808;23;20046;-61
2022/04/16 03:31:44;;;;;;;1.77;1.38;;;;;;;8.71;100.00;99585.81;6245750;23;20119;-60
2022/04/16 03:34:28;;;;;;;3.13;2.03;;;;;;;8.68;100.00;99591.16;6245645;23;20031;-61
2022/04/16 03:37:13;;;;;;;2.20;1.70;;;;;;;8.71;100.00;99595.53;6222336;23;20031;-62
2022/04/16 03:39:57;;;;;;;1.65;1.55;;;;;;;8.57;100.00;99561.38;6245157;23;20031;-61
2022/04/16 03:42:46;;;;;;;2.00;1.40;;;;;;;8.68;100.00;99593.81;6255131;23;20034;-62
2022/04/16 03:45:36;;;;;;;1.55;1.38;;;;;;;8.61;100.00;99597.44;6232654;23;20125;-61
2022/04/16 03:48:20;;;;;;;2.40;1.40;;;;;;;8.38;100.00;99602.16;6254844;23;20042;-62
2022/04/16 03:51:05;;;;;;;3.03;1.40;;;;;;;8.16;100.00;99590.09;6254692;23;20077;-61
2022/04/16 03:53:49;;;;;;;1.45;0.90;;;;;;;8.14;100.00;99583.97;6255065;23;20039;-62
2022/04/16 04:02:39;;;;;;;1.02;0.80;;;;;;;7.81;100.00;99592.34;6245472;23;20031;-62
2022/04/16 04:05:24;;;;;;;2.33;1.00;;;;;;;7.85;100.00;99594.03;6255548;23;20370;-61
2022/04/16 04:08:10;;;;;;;0.95;0.85;;;;;;;7.83;100.00;99603.72;6221494;23;20262;-62
2022/04/16 04:10:54;;;;;;;1.95;0.80;;;;;;;7.86;100.00;99600.19;6255386;23;20071;-62
2022/04/16 04:13:38;;;;;;;7.72;3.63;;;;;;;7.78;100.00;99592.38;6255207;23;20030;-61
2022/04/16 04:16:22;;;;;;;1.58;0.80;;;;;;;7.68;100.00;99595.13;6255407;23;20469;-61
2022/04/16 04:19:07;;;;;;;1.10;1.00;;;;;;;7.71;100.00;99610.94;6255296;23;20027;-63
2022/04/16 04:21:51;;;;;;;1.10;0.83;;;;;;;7.60;100.00;99610.19;6255524;23;20366;-62
2022/04/16 04:24:38;;;;;;;0.82;0.80;;;;;;;7.55;100.00;99615.50;6232212;23;20254;-63
2022/04/16 04:27:22;;;;;;;1.45;0.70;;;;;;;7.39;100.00;99619.16;6232426;23;20363;-62
2022/04/16 04:30:07;;;;;;;1.30;0.90;;;;;;;7.29;100.00;99617.53;6200872;23;20027;-62
2022/04/16 04:32:51;;;;;;;0.82;0.70;;;;;;;7.15;100.00;99600.94;6254897;23;20420;-63
2022/04/16 04:35:36;;;;;;;2.38;0.75;;;;;;;7.44;100.00;99624.41;6255698;23;20026;-62
2022/04/16 04:38:20;;;;;;;1.20;1.10;;;;;;;7.49;100.00;99623.47;6233593;23;20074;-63
2022/04/16 04:41:07;;;;;;;1.25;1.08;;;;;;;7.44;100.00;99617.34;6223911;23;20253;-62
2022/04/16 04:43:51;;;;;;;1.10;1.00;;;;;;;7.33;100.00;99637.72;6256344;23;20382;-63
2022/04/16 04:46:35;;;;;;;2.47;1.05;;;;;;;7.24;100.00;99645.69;6202028;23;20027;-62
2022/04/16 04:49:20;;;;;;;1.70;1.17;;;;;;;7.04;100.00;99612.47;6233967;23;20054;-62
2022/04/16 04:52:05;;;;;;;0.77;0.77;;;;;;;7.17;100.00;99649.28;6257021;23;20109;-61
2022/04/16 04:54:50;;;;;;;1.30;1.13;;;;;;;7.15;100.00;99611.50;6256789;23;20117;-62
2022/04/16 04:57:34;;;;;;;2.05;1.40;;;;;;;7.34;100.00;99644.72;6246359;23;20027;-61
2022/04/16 05:00:19;;;;;;;2.85;1.30;;;;;;;7.38;100.00;99640.28;6246550;23;20481;-62
2022/04/16 05:03:03;;;;;;;2.92;1.13;;;;;;;7.46;100.00;99651.63;6256958;23;20154;-62
2022/04/16 05:05:47;;;;;;;1.55;1.33;;;;;;;7.22;100.00;99626.38;6256739;23;20031;-63
2022/04/16 05:08:32;;;;;;;2.42;1.30;;;;;;;7.24;100.00;99650.09;6256607;23;20564;-63
2022/04/16 05:11:17;;;;;;;1.38;1.25;;;;;;;7.34;100.00;99651.75;6256408;23;20062;-62
2022/04/16 05:14:02;;;;;;;1.60;1.40;;;;;;;7.23;100.00;99665.03;6233983;23;20031;-63
2022/04/16 05:16:48;;;;;;;1.55;1.10;;;;;;;7.24;100.00;99661.50;6234143;23;20047;-63
2022/04/16 05:19:33;;;;;;;1.10;0.93;;;;;;;7.22;100.00;99673.84;6233447;23;20108;-63
2022/04/16 05:22:17;;;;;;;1.42;1.20;;;;;;;7.09;100.00;99656.38;6233735;23;20472;-63
2022/04/16 05:25:02;;;;;;;1.10;0.98;;;;;;;7.15;100.00;99684.44;6223754;23;20094;-63
2022/04/16 05:27:47;;;;;;;1.98;0.90;;;;;;;7.07;100.00;99678.34;6202253;23;20027;-64
2022/04/16 05:30:38;;;;;;;1.95;1.30;;;;;;;7.14;100.00;99693.22;6233971;23;20401;-63
2022/04/16 05:36:25;;;;;;;0.70;0.70;;;;;;;7.08;100.00;99691.50;6256333;23;20078;-63
2022/04/16 05:39:10;;;;;;;0.77;0.60;;;;;;;7.10;100.00;99680.97;6256559;23;20074;-66
2022/04/16 05:41:54;;;;;;;1.55;0.80;;;;;;;7.01;100.00;99702.97;6233222;23;20121;-65
2022/04/16 05:44:39;;;;;;;0.82;0.73;;;;;;;7.07;100.00;99696.78;6233532;23;20050;-64
2022/04/16 05:47:23;;;;;;;0.73;0.60;;;;;;;7.12;100.00;99695.88;6233585;23;20031;-64
2022/04/16 05:50:08;;;;;;;1.10;0.75;;;;;;;7.15;100.00;99705.53;6256020;23;20026;-63
2022/04/16 05:52:53;;;;;;;0.60;0.52;;;;;;;7.18;100.00;99690.56;6256070;23;20031;-64
2022/04/16 05:55:45;;;;;;;0.95;0.52;;;;;;;7.34;100.00;99693.94;6223119;23;20097;-63
2022/04/16 05:58:30;;;;;;;0.85;0.57;;;;;;;7.22;100.00;99679.13;6256319;23;20069;-63
2022/04/16 06:01:14;;;;;;;0.52;0.43;;;;;;;7.13;100.00;99666.00;6212406;23;20073;-63
2022/04/16 06:03:58;;;;;;;0.60;0.50;;;;;;;7.35;100.00;99701.84;6233106;23;20366;-63
2022/04/16 06:06:44;;;;;;;0.63;0.45;;;;;;;7.42;100.00;99698.28;6256029;23;20157;-64
2022/04/16 06:09:28;;;;;;;0.60;0.47;;;;;;;7.44;100.00;99695.63;6256535;23;20035;-63
2022/04/16 06:12:13;;;;;;;0.50;0.43;;;;;;;7.22;100.00;99667.69;6212078;23;20026;-64
2022/04/16 06:14:59;;;;;;;1.88;0.70;;;;;;;7.20;100.00;99688.78;6223095;23;20039;-64
2022/04/16 06:17:43;;;;;;;0.98;0.60;;;;;;;7.40;100.00;99689.50;6233349;23;20058;-63
2022/04/16 06:20:28;;;;;;;1.52;0.60;;;;;;;7.21;100.00;99669.47;6256491;23;20034;-62
2022/04/16 06:23:12;;;;;;;1.20;0.77;;;;;;;7.35;100.00;99682.50;6255867;23;20108;-63
2022/04/16 06:25:57;;;;;;;1.00;0.63;;;;;;;7.43;100.00;99705.28;6255580;23;20335;-63
2022/04/16 06:28:41;;;;;;;0.70;0.60;;;;;;;7.54;100.00;99706.09;6233264;23;20074;-62
2022/04/16 06:31:25;;;;;;;1.48;0.80;;;;;;;7.55;100.00;99691.09;6255420;23;20058;-65
2022/04/16 06:34:10;;;;;;;1.63;0.67;;;;;;;7.48;100.00;99671.81;6255749;23;20082;-66
2022/04/16 06:36:54;;;;;;;0.90;0.57;;;;;;;7.79;100.00;99696.19;6255275;23;20340;-63
2022/04/16 06:39:39;;;;;;;0.88;0.50;;;;;;;7.97;100.00;99714.44;6232375;23;20027;-63
2022/04/16 06:42:23;;;;;;;1.77;0.40;;;;;;;7.59;100.00;99669.09;6233158;23;20158;-64
2022/04/16 06:45:11;;;;;;;1.60;0.60;;;;;;;7.94;100.00;99718.00;6201617;23;20031;-63
2022/04/16 06:47:55;;;;;;;0.73;0.50;;;;;;;8.01;100.00;99724.09;6245102;23;20035;-63
2022/04/16 06:50:40;;;;;;;0.60;0.50;;;;;;;8.00;100.00;99732.91;6245221;23;20073;-64
2022/04/16 06:53:28;;;;;;;0.60;0.60;;;;;;;8.06;100.00;99746.03;6255942;23;20081;-63
2022/04/16 06:56:12;;;;;;;1.23;0.60;;;;;;;7.74;100.00;99713.81;6232412;23;20043;-63
2022/04/16 06:58:57;;;;;;;0.57;0.50;;;;;;;7.82;100.00;99733.97;6232128;23;20027;-63
2022/04/16 07:01:41;;;;;;;0.85;0.47;;;;;;;7.84;100.00;99739.22;6255649;23;20031;-62
2022/04/16 07:04:26;;;;;;;0.70;0.50;;;;;;;7.90;100.00;99740.03;6232761;23;20027;-64
2022/04/16 07:07:11;;;;;;;0.85;0.55;;;;;;;7.94;100.00;99740.88;6245281;23;20126;-64
2022/04/16 07:09:55;;;;;;;0.52;0.43;;;;;;;7.86;100.00;99727.75;6256113;23;20063;-63
2022/04/16 07:12:40;;;;;;;0.93;0.60;;;;;;;7.78;100.00;99740.16;6255408;23;20078;-64
2022/04/16 07:15:24;;;;;;;1.55;0.50;;;;;;;7.63;100.00;99708.63;6232453;23;20074;-62
2022/04/16 07:18:09;;;;;;;0.90;0.60;;;;;;;7.53;100.00;99699.06;6255056;23;20362;-63
2022/04/16 07:20:53;;;;;;;0.95;0.60;;;;;;;7.74;100.00;99725.25;6254844;23;20055;-62
2022/04/16 07:23:38;;;;;;;1.08;0.65;;;;;;;7.83;100.00;99726.94;6255034;23;20070;-63
2022/04/16 07:26:23;;;;;;;0.93;0.60;;;;;;;7.84;100.00;99734.81;6255206;23;20070;-63
2022/04/16 07:29:07;;;;;;;1.65;0.77;;;;;;;7.95;100.00;99740.88;6255141;23;20054;-64
2022/04/16 07:31:51;;;;;;;1.35;0.40;;;;;;;7.92;100.00;99732.97;6255108;23;20378;-63
2022/04/16 07:34:36;;;;;;;0.90;0.57;;;;;;;7.88;100.00;99747.09;6226854;23;20023;-62
2022/04/16 07:37:22;;;;;;;1.35;0.50;;;;;;;7.44;100.00;99700.91;6200436;23;20082;-62
2022/04/16 07:40:07;;;;;;;0.82;0.55;;;;;;;7.78;100.00;99756.00;6255704;23;20056;-63
2022/04/16 07:42:52;;;;;;;0.43;0.32;;;;;;;7.80;100.00;99758.63;6210628;23;20452;-62
2022/04/16 07:45:37;;;;;;;0.73;0.50;;;;;;;7.93;100.00;99761.13;6222191;23;20354;-61
2022/04/16 07:48:22;;;;;;;1.00;0.47;;;;;;;8.02;100.00;99765.44;6222140;23;20035;-63
2022/04/16 07:51:06;;;;;;;1.55;0.50;;;;;;;8.05;100.00;99768.94;6221683;23;20473;-64
2022/04/16 07:53:55;;;;;;;0.55;0.40;;;;;;;8.27;100.00;99770.47;6222223;23;20035;-64
2022/04/16 07:56:40;;;;;;;0.63;0.40;;;;;;;8.24;100.00;99765.22;6200271;23;20023;-64
2022/04/16 07:59:25;;;;;;;0.40;0.40;;;;;;;8.23;100.00;99784.63;6231625;23;20023;-63
2022/04/16 08:02:09;;;;;;;1.00;0.57;;;;;;;8.15;100.00;99781.16;6255091;23;20454;-64
2022/04/16 08:04:54;;;;;;;0.80;0.70;;;;;;;8.06;100.00;99796.19;6255490;23;20034;-62
2022/04/16 08:07:38;;;;;;;0.95;0.60;;;;;;;7.89;100.00;99806.03;6254971;23;20054;-62
2022/04/16 08:10:23;;;;;;;1.60;0.80;;;;;;;7.80;100.00;99812.28;6256635;23;20059;-63
2022/04/16 08:13:08;;;;;;;1.33;0.70;;;;;;;7.67;100.00;99815.03;6257431;23;20027;-63
2022/04/16 08:15:54;;;;;;;0.77;0.57;;;;;;;7.60;100.00;99822.09;6224074;23;20101;-64
2022/04/16 08:18:41;;;;;;;1.10;0.75;;;;;;;7.30;100.00;99769.59;6203201;23;20030;-63
2022/04/16 08:21:26;;;;;;;1.10;0.70;;;;;;;7.60;100.00;99824.75;6246377;23;20038;-63
2022/04/16 08:24:13;;;;;;;1.20;0.70;;;;;;;7.77;100.00;99824.63;6234386;23;20350;-63
2022/04/16 08:26:57;;;;;;;1.17;0.77;;;;;;;7.72;100.00;99823.81;6257075;23;20031;-62
2022/04/16 08:29:42;;;;;;;0.82;0.75;;;;;;;7.66;100.00;99819.44;6246646;23;20047;-61
2022/04/16 08:32:26;;;;;;;0.93;0.70;;;;;;;7.63;100.00;99798.34;6256788;23;20026;-64
2022/04/16 08:35:16;;;;;;;0.80;0.73;;;;;;;7.69;100.00;99835.25;6223681;23;20106;-62
2022/04/16 08:38:00;;;;;;;1.05;0.63;;;;;;;7.72;100.00;99837.84;6246767;23;20444;-63
2022/04/16 08:40:47;;;;;;;1.00;0.60;;;;;;;7.57;100.00;99814.25;6202700;23;20042;-62
2022/04/16 08:43:33;;;;;;;0.90;0.70;;;;;;;7.70;100.00;99836.13;6233452;23;20489;-63
2022/04/16 08:46:17;;;;;;;1.40;0.60;;;;;;;7.63;100.00;99842.31;6256315;23;20095;-62
2022/04/16 08:49:06;;;;;;;1.20;0.85;;;;;;;7.43;100.00;99807.28;6246096;23;20527;-63
2022/04/16 08:51:51;;;;;;;0.75;0.70;;;;;;;7.69;100.00;99850.19;6235215;23;20481;-63
2022/04/16 08:54:38;;;;;;;1.15;0.77;;;;;;;7.75;100.00;99843.13;6256503;23;20042;-64
2022/04/16 08:57:23;;;;;;;2.78;1.20;;;;;;;7.74;100.00;99838.72;6257137;23;20055;-67
2022/04/16 09:00:13;;;;;;;1.70;1.10;;;;;;;7.75;100.00;99852.81;6245724;23;20119;-63
2022/04/16 09:03:03;;;;;;;1.10;0.90;;;;;;;7.69;100.00;99842.28;6212464;23;20027;-63
2022/04/16 09:05:55;;;;;;;1.00;0.85;;;;;;;7.71;100.00;99857.22;6256444;23;20050;-65
2022/04/16 09:08:39;;;;;;;1.30;0.80;;;;;;;7.56;100.00;99861.75;6246495;23;20079;-64
2022/04/16 09:11:24;;;;;;;1.67;0.90;;;;;;;7.36;100.00;99861.00;6211397;23;20078;-66
2022/04/16 09:14:08;;;;;;;0.95;0.90;;;;;;;7.42;100.00;99863.56;6202541;23;20031;-64
2022/04/16 09:16:52;;;;;;;0.90;0.80;;;;;;;7.36;100.00;99856.56;6222789;23;20135;-64
2022/04/16 09:19:37;;;;;;;0.82;0.77;;;;;;;7.35;100.00;99852.19;6202239;23;20266;-64
2022/04/16 09:22:34;;;;;;;1.80;1.37;;;;;;;7.60;100.00;99864.31;6201566;23;20055;-64
2022/04/16 09:25:19;;;;;;;0.82;0.63;;;;;;;7.44;100.00;99864.47;6233333;23;20258;-65
2022/04/16 09:28:07;;;;;;;1.85;0.70;;;;;;;7.42;100.00;99872.38;6246042;23;20042;-66
2022/04/16 09:30:55;;;;;;;0.82;0.82;;;;;;;7.48;100.00;99874.09;6232648;23;20062;-68
2022/04/16 09:33:40;;;;;;;1.65;0.70;;;;;;;7.23;100.00;99835.53;6233580;23;20031;-65
2022/04/16 09:36:28;;;;;;;1.70;1.20;;;;;;;7.34;100.00;99871.53;6224431;23;20112;-64
2022/04/16 09:39:14;;;;;;;1.42;0.85;;;;;;;7.35;100.00;99891.75;6256405;23;20034;-63
2022/04/16 09:41:58;;;;;;;1.70;1.20;;;;;;;7.25;100.00;99881.25;6223903;23;20078;-64
2022/04/16 09:44:43;;;;;;;1.35;1.00;;;;;;;7.05;100.00;99855.00;6201453;23;20152;-64
2022/04/16 09:47:32;;;;;;;0.80;0.80;;;;;;;7.23;100.00;99883.00;6199203;23;20027;-64
2022/04/16 09:50:19;;;;;;;1.33;1.00;;;;;;;7.31;100.00;99876.81;6211503;23;20046;-64
2022/04/16 09:53:06;;;;;;;1.85;0.85;;;;;;;7.25;100.00;99868.06;6201589;23;20031;-63
2022/04/16 09:55:52;;;;;;;0.80;0.80;;;;;;;7.49;100.00;99889.03;6232187;23;20074;-67
2022/04/16 09:58:40;;;;;;;1.88;1.02;;;;;;;7.35;100.00;99899.66;6201964;23;20027;-63
2022/04/16 10:01:25;;;;;;;1.38;0.90;;;;;;;7.23;100.00;99891.81;6245949;23;20069;-63
2022/04/16 10:04:09;;;;;;;1.17;0.80;;;;;;;7.16;100.00;99905.03;6223925;23;20067;-66
2022/04/16 10:06:55;;;;;;;1.48;1.08;;;;;;;7.36;100.00;99896.13;6223056;23;20031;-64
2022/04/16 10:09:42;;;;;;;1.23;1.10;;;;;;;7.32;100.00;99891.75;6255320;23;20028;-63
2022/04/16 10:15:57;;;;;;;1.38;1.10;;;;;;;7.34;100.00;99881.19;6232200;23;20406;-65
2022/04/16 10:18:44;;;;;;;1.75;1.10;;;;;;;7.50;100.00;99912.78;6256519;23;20137;-64
2022/04/16 10:21:36;;;;;;;1.33;1.23;;;;;;;7.65;100.00;99910.06;6259213;23;20027;-64
2022/04/16 10:24:25;;;;;;;1.17;1.05;;;;;;;7.51;100.00;99916.28;6259374;23;20358;-64
2022/04/16 10:27:10;;;;;;;1.20;0.80;;;;;;;7.49;100.00;99918.06;6233693;23;20030;-63
2022/04/16 10:30:02;;;;;;;1.27;0.95;;;;;;;7.47;100.00;99933.88;6222543;23;20022;-65
2022/04/16 10:32:47;;;;;;;2.15;1.33;;;;;;;7.31;100.00;99928.69;6220493;23;20051;-64
2022/04/16 10:35:32;;;;;;;0.93;0.90;;;;;;;7.35;100.00;99938.34;6255069;23;20034;-65
2022/04/16 10:38:25;;;;;;;1.33;0.90;;;;;;;7.31;100.00;99936.59;6230580;23;20146;-65
2022/04/16 10:41:17;;;;;;;0.93;0.70;;;;;;;7.29;100.00;99943.66;6253546;23;20118;-62
2022/04/16 10:44:02;;;;;;;1.02;0.80;;;;;;;6.87;100.00;99902.50;6254588;23;20046;-64
2022/04/16 10:46:49;;;;;;;1.92;1.00;;;;;;;7.07;100.00;99926.16;6231389;23;20417;-65
2022/04/16 10:49:41;;;;;;;1.83;0.88;;;;;;;7.22;100.00;99931.38;6222513;23;20089;-63
2022/04/16 10:52:25;;;;;;;1.52;0.80;;;;;;;7.37;100.00;99950.66;6232798;23;20031;-63
2022/04/16 10:55:09;;;;;;;3.53;2.03;;;;;;;7.26;100.00;99939.28;6255177;23;20051;-66
2022/04/16 10:57:58;;;;;;;1.95;1.20;;;;;;;7.28;100.00;99950.69;6255495;23;20023;-64
2022/04/16 11:00:46;;;;;;;1.20;1.00;;;;;;;7.10;100.00;99934.06;6254001;23;20074;-63
2022/04/16 11:03:31;;;;;;;1.48;1.10;;;;;;;7.30;100.00;99956.84;6200497;23;20031;-63
2022/04/16 11:06:17;;;;;;;1.13;0.95;;;;;;;7.21;100.00;99941.06;6245108;23;20118;-65
2022/04/16 11:09:02;;;;;;;1.42;1.15;;;;;;;7.28;100.00;99960.38;6221688;23;20042;-64
2022/04/16 11:11:51;;;;;;;4.22;1.30;;;;;;;7.16;100.00;99977.09;6221349;23;20030;-63
2022/04/16 11:14:38;;;;;;;1.65;1.30;;;;;;;7.01;100.00;99963.94;6245363;23;20030;-64
2022/04/16 11:17:22;;;;;;;2.53;1.13;;;;;;;7.11;100.00;99978.88;6245172;23;20078;-65
2022/04/16 11:20:08;;;;;;;2.55;1.50;;;;;;;7.08;100.00;99978.88;6222039;23;20027;-64
2022/04/16 11:22:52;;;;;;;1.52;1.13;;;;;;;7.07;100.00;99963.06;6232495;23;20031;-64
2022/04/16 11:34:56;;;;;;;1.35;0.90;;;;;;;7.19;100.00;99987.63;6244893;23;20027;-64
2022/04/16 11:37:40;;;;;;;2.15;1.00;;;;;;;7.21;100.00;99964.78;6221980;23;20027;-64
2022/04/16 11:40:25;;;;;;;3.03;1.20;;;;;;;7.31;100.00;99999.91;6200783;23;20379;-65
2022/04/16 11:43:13;;;;;;;1.45;1.00;;;;;;;7.21;100.00;99980.63;6254513;23;20027;-63
2022/04/16 11:46:00;;;;;;;1.25;1.00;;;;;;;7.16;100.00;99992.91;6246161;23;20082;-64
2022/04/16 11:48:49;;;;;;;1.80;1.10;;;;;;;7.22;100.00;100003.47;6223955;23;20515;-63
2022/04/16 11:51:36;;;;;;;1.10;1.00;;;;;;;7.10;100.00;100013.16;6256827;23;20163;-64
2022/04/16 11:54:29;;;;;;;1.42;1.02;;;;;;;7.16;100.00;100013.16;6180990;23;20158;-64
2022/04/16 11:57:21;;;;;;;0.98;0.85;;;;;;;7.17;100.00;100017.53;6256231;23;20086;-68
2022/04/16 12:00:08;;;;;;;1.73;0.93;;;;;;;7.16;100.00;100015.78;6246092;23;20050;-64
2022/04/16 12:02:56;;;;;;;2.15;0.93;;;;;;;7.24;100.00;100028.06;6221079;23;20031;-63
2022/04/16 12:05:42;;;;;;;1.98;0.90;;;;;;;7.06;100.00;100024.59;6244084;23;20058;-62
2022/04/16 12:08:27;;;;;;;1.38;0.90;;;;;;;7.04;100.00;100021.94;6256152;23;20075;-64
2022/04/16 12:11:13;;;;;;;1.00;0.82;;;;;;;6.96;100.00;100017.59;6245881;23;20062;-64
2022/04/16 12:13:58;;;;;;;3.22;0.90;;;;;;;6.89;100.00;100027.25;6245163;23;20031;-64
2022/04/16 12:16:42;;;;;;;0.90;0.80;;;;;;;6.92;100.00;100032.50;6233956;23;20031;-63
2022/04/16 12:19:30;;;;;;;1.10;0.80;;;;;;;7.05;100.00;100042.19;6224228;23;20026;-64
2022/04/16 12:22:16;;;;;;;0.70;0.60;;;;;;;7.27;100.00;100043.88;6222031;23;20644;-65
2022/04/16 12:25:10;;;;;;;1.23;0.70;;;;;;;7.27;100.00;100051.78;6255597;23;20031;-63
2022/04/16 12:27:58;;;;;;;2.28;1.00;;;;;;;7.16;100.00;100073.81;6246650;23;20026;-64
2022/04/16 12:30:50;;;;;;;1.10;0.82;;;;;;;7.00;100.00;100053.63;6257379;23;20081;-64
2022/04/16 12:33:35;;;;;;;1.25;0.80;;;;;;;6.93;100.00;100059.75;6212434;23;20137;-64
2022/04/16 12:36:19;;;;;;;0.90;0.80;;;;;;;6.88;100.00;100061.53;6233073;23;20354;-63
2022/04/16 12:39:04;;;;;;;1.35;0.80;;;;;;;6.85;100.00;100065.00;6211353;23;20082;-63
2022/04/16 12:41:50;;;;;;;2.50;1.07;;;;;;;6.98;100.00;100066.78;6256680;23;20382;-63
2022/04/16 12:44:34;;;;;;;1.38;1.00;;;;;;;6.97;100.00;100062.38;6256419;23;20293;-63
2022/04/16 12:47:19;;;;;;;1.27;0.80;;;;;;;6.95;100.00;100077.31;6223746;23;20026;-63
2022/04/16 12:50:04;;;;;;;1.63;0.90;;;;;;;6.84;100.00;100075.59;6233428;23;20036;-64
2022/04/16 12:52:49;;;;;;;2.38;0.77;;;;;;;6.92;100.00;100082.59;6222476;23;20027;-64
2022/04/16 12:55:33;;;;;;;1.17;0.85;;;;;;;7.01;100.00;100077.31;6201828;23;20148;-64
2022/04/16 12:58:18;;;;;;;2.22;0.80;;;;;;;6.98;100.00;100079.97;6256154;23;20129;-64
2022/04/16 13:01:02;;;;;;;1.17;0.90;;;;;;;6.79;100.00;100051.88;6223300;23;20480;-63
2022/04/16 13:03:47;;;;;;;1.45;0.90;;;;;;;6.69;100.00;100046.59;6233362;23;20111;-64
2022/04/16 13:06:31;;;;;;;1.60;1.00;;;;;;;6.89;100.00;100074.69;6245772;23;20031;-63
2022/04/16 13:09:16;;;;;;;1.42;1.00;;;;;;;6.85;100.00;100082.59;6256136;23;20035;-63
2022/04/16 13:12:02;;;;;;;1.10;1.00;;;;;;;6.41;100.00;100040.44;6254868;23;20031;-65
2022/04/16 13:14:47;;;;;;;1.33;0.70;;;;;;;6.54;100.00;100081.72;6255969;23;20453;-63
2022/04/16 13:17:32;;;;;;;0.95;0.85;;;;;;;6.66;100.00;100100.19;6233875;23;20047;-62
2022/04/16 13:20:16;;;;;;;1.63;1.08;;;;;;;6.76;100.00;100096.66;6255373;23;20073;-64
2022/04/16 13:23:00;;;;;;;2.13;0.73;;;;;;;6.75;100.00;100088.75;6255675;23;20086;-65